createdAt,value
2022-11-27T00:01:27.976Z,96014.19
2022-11-27T00:03:56.555Z,96028.16
2022-11-27T00:06:26.157Z,96034.91
2022-11-27T00:08:53.416Z,96039.88
2022-11-27T00:11:22.991Z,96044.81
2022-11-27T00:13:52.749Z,96037.72
2022-11-27T00:16:21.334Z,96035.03
2022-11-27T00:18:48.865Z,96038.19
2022-11-27T00:21:22.400Z,96039.38
2022-11-27T00:23:50.036Z,96035.38
2022-11-27T00:26:16.908Z,96041.66
2022-11-27T00:28:43.711Z,96049.47
2022-11-27T00:31:19.528Z,96041.97
2022-11-27T00:33:46.477Z,96052.00
2022-11-27T00:36:14.485Z,96048.72
2022-11-27T00:38:41.925Z,96057.34
2022-11-27T00:41:12.986Z,96055.59
2022-11-27T00:43:44.566Z,96050.16
2022-11-27T00:46:16.415Z,96046.72
2022-11-27T00:48:44.106Z,96055.94
2022-11-27T00:51:14.683Z,96057.59
2022-11-27T00:53:42.321Z,96049.69
2022-11-27T00:56:11.225Z,96059.59
2022-11-27T00:58:38.030Z,96059.66
2022-11-27T01:01:07.435Z,96057.19
2022-11-27T01:03:35.510Z,96059.06
2022-11-27T01:06:04.902Z,96054.38
2022-11-27T01:08:32.209Z,96051.81
2022-11-27T01:11:00.096Z,96059.38
2022-11-27T01:13:28.833Z,96047.69
2022-11-27T01:16:05.013Z,96045.81
2022-11-27T01:18:34.596Z,96043.13
2022-11-27T01:21:01.272Z,96038.75
2022-11-27T01:23:28.341Z,96037.94
2022-11-27T01:25:55.235Z,96033.06
2022-11-27T01:28:24.013Z,96034.94
2022-11-27T01:30:51.776Z,96037.56
2022-11-27T01:33:19.566Z,96032.31
2022-11-27T01:36:01.182Z,96036.59
2022-11-27T01:38:30.403Z,96026.84
2022-11-27T01:41:05.700Z,96031.38
2022-11-27T01:43:39.068Z,96030.69
2022-11-27T01:46:13.285Z,96022.44
2022-11-27T01:48:40.326Z,96018.19
2022-11-27T01:51:07.153Z,96018.09
2022-11-27T01:53:34.580Z,96018.72
2022-11-27T01:56:02.069Z,96015.25
2022-11-27T01:58:30.616Z,96016.69
2022-11-27T02:00:58.572Z,96013.56
2022-11-27T02:03:25.462Z,96018.47
2022-11-27T02:05:52.285Z,96017.00
2022-11-27T02:08:19.503Z,96016.09
2022-11-27T02:10:49.297Z,96021.78
2022-11-27T02:13:43.953Z,96015.09
2022-11-27T02:16:31.917Z,96011.00
2022-11-27T02:19:15.316Z,96023.56
2022-11-27T02:21:54.709Z,96023.56
2022-11-27T02:24:24.438Z,96021.78
2022-11-27T02:27:18.295Z,96020.06
2022-11-27T02:29:48.877Z,96021.03
2022-11-27T02:32:39.781Z,96021.03
2022-11-27T04:16:22.875Z,96017.16
2022-11-27T04:18:49.811Z,96010.41
2022-11-27T04:21:17.230Z,96019.69
2022-11-27T04:23:44.808Z,96017.06
2022-11-27T04:26:11.633Z,96018.25
2022-11-27T04:28:38.511Z,96014.59
2022-11-27T04:31:05.555Z,96013.38
2022-11-27T04:33:32.368Z,96025.06
2022-11-27T04:35:59.161Z,96028.38
2022-11-27T04:38:25.917Z,96029.13
2022-11-27T06:47:50.558Z,96079.63
2022-11-27T06:50:20.135Z,96069.88
2022-11-27T06:52:47.030Z,96079.25
2022-11-27T06:55:13.916Z,96066.56
2022-11-27T06:57:40.735Z,96072.88
2022-11-27T07:00:08.375Z,96069.09
2022-11-27T07:02:35.279Z,96078.03
2022-11-27T07:05:02.141Z,96076.88
2022-11-27T07:07:29.000Z,96076.09
2022-11-27T07:09:55.866Z,96074.09
2022-11-27T07:12:22.728Z,96071.88
2022-11-27T07:14:49.522Z,96070.25
2022-11-27T07:17:16.360Z,96064.25
2022-11-27T07:19:43.206Z,96066.22
2022-11-27T07:22:10.069Z,96056.91
2022-11-27T07:24:36.977Z,96066.47
2022-11-27T07:27:03.818Z,96065.66
2022-11-27T07:29:30.615Z,96067.47
2022-11-27T07:31:57.430Z,96062.88
2022-11-27T07:34:24.255Z,96066.13
2022-11-27T07:36:51.034Z,96063.03
2022-11-27T07:39:28.732Z,96065.66
2022-11-27T07:42:37.058Z,96053.47
2022-11-27T07:44:54.819Z,96054.47
2022-11-27T07:47:21.661Z,96057.41
2022-11-27T07:49:48.434Z,96064.09
2022-11-27T07:52:15.306Z,96052.97
2022-11-27T07:54:42.390Z,96046.47
2022-11-27T07:57:09.299Z,96062.03
2022-11-27T07:59:36.085Z,96060.22
2022-11-27T08:02:03.122Z,96048.66
2022-11-27T08:04:30.122Z,96053.00
2022-11-27T08:06:57.748Z,96051.94
2022-11-27T08:09:24.631Z,96053.66
2022-11-27T08:11:51.401Z,96055.06
2022-11-27T08:14:19.358Z,96047.31
2022-11-27T08:16:46.359Z,96057.38
2022-11-27T08:19:13.668Z,96054.81
2022-11-27T08:21:40.531Z,96062.56
2022-11-27T08:24:07.667Z,96062.41
2022-11-27T08:26:34.538Z,96054.75
2022-11-27T08:29:01.407Z,96044.69
2022-11-27T08:31:28.233Z,96051.91
2022-11-27T08:33:55.114Z,96056.03
2022-11-27T08:36:22.860Z,96055.28
2022-11-27T08:38:49.726Z,96054.19
2022-11-27T08:41:16.621Z,96051.72
2022-11-27T08:43:43.517Z,96041.50
2022-11-27T08:46:11.156Z,96055.50
2022-11-27T08:48:38.352Z,96044.66
2022-11-27T08:51:07.948Z,96045.31
2022-11-27T08:53:37.751Z,96037.81
2022-11-27T08:56:25.588Z,96029.59
2022-11-27T08:58:52.807Z,96031.41
2022-11-27T09:01:23.914Z,96034.44
2022-11-27T09:03:52.970Z,96032.38
2022-11-27T09:06:23.534Z,96028.00
2022-11-27T09:08:51.335Z,96028.38
2022-11-27T09:11:20.271Z,96031.31
2022-11-27T09:13:47.825Z,96027.66
2022-11-27T09:16:17.672Z,96023.00
2022-11-27T09:18:49.373Z,96028.84
2022-11-27T09:21:19.069Z,96026.13
2022-11-27T09:23:45.947Z,96021.25
2022-11-27T09:26:17.699Z,96007.94
2022-11-27T09:28:45.007Z,96006.66
2022-11-27T09:31:14.875Z,96012.03
2022-11-27T09:33:43.817Z,96011.50
2022-11-27T09:36:16.081Z,96004.25
2022-11-27T09:38:43.138Z,96004.94
2022-11-27T09:41:38.818Z,95997.16
2022-11-27T09:44:12.085Z,95998.66
2022-11-27T09:46:41.807Z,95992.91
2022-11-27T09:49:22.121Z,95993.53
2022-11-27T09:52:14.674Z,95987.75
2022-11-27T09:54:52.615Z,95982.78
2022-11-27T09:57:26.693Z,95978.09
2022-11-27T09:59:55.215Z,95973.16
2022-11-27T10:02:30.062Z,95961.38
2022-11-27T10:05:15.465Z,95959.50
2022-11-27T10:08:13.357Z,95964.31
2022-11-27T10:11:01.755Z,95960.50
2022-11-27T10:13:39.913Z,95958.66
2022-11-27T10:16:26.079Z,95959.19
2022-11-27T10:18:52.938Z,95954.06
2022-11-27T10:21:37.957Z,95948.94
2022-11-27T10:24:16.253Z,95942.88
2022-11-27T10:26:52.788Z,95938.88
2022-11-27T10:29:34.573Z,95935.78
2022-11-27T10:32:07.332Z,95927.63
2022-11-27T10:34:45.029Z,95915.69
2022-11-27T10:37:32.690Z,95925.75
2022-11-27T10:40:06.546Z,95908.91
2022-11-27T10:42:42.422Z,95918.13
2022-11-27T10:45:44.428Z,95917.22
2022-11-27T10:48:12.576Z,95917.09
2022-11-27T10:50:40.470Z,95905.44
2022-11-27T10:53:33.533Z,95904.16
2022-11-27T10:56:12.675Z,95907.91
2022-11-27T10:59:01.680Z,95896.72
2022-11-27T11:01:49.391Z,95892.72
2022-11-27T11:04:37.401Z,95895.06
2022-11-27T11:07:25.327Z,95902.16
2022-11-27T11:09:53.615Z,95891.38
2022-11-27T11:12:23.209Z,95896.31
2022-11-27T11:14:59.683Z,95887.59
2022-11-27T11:17:37.827Z,95886.31
2022-11-27T11:20:24.239Z,95886.13
2022-11-27T11:22:51.634Z,95880.56
2022-11-27T11:25:20.780Z,95875.66
2022-11-27T11:27:49.844Z,95866.19
2022-11-27T11:30:29.917Z,95861.47
2022-11-27T11:33:03.851Z,95855.06
2022-11-27T11:35:36.168Z,95850.03
2022-11-27T11:38:06.374Z,95852.03
2022-11-27T11:40:35.423Z,95851.00
2022-11-27T11:43:26.353Z,95842.97
2022-11-27T11:45:53.223Z,95849.63
2022-11-27T11:48:27.949Z,95850.13
2022-11-27T11:50:57.250Z,95848.06
2022-11-27T11:53:45.605Z,95843.41
2022-11-27T11:56:27.857Z,95838.66
2022-11-27T11:59:02.875Z,95841.00
2022-11-27T12:01:43.702Z,95834.25
2022-11-27T12:04:25.412Z,95836.47
2022-11-27T12:07:11.183Z,95832.53
2022-11-27T12:09:52.333Z,95826.03
2022-11-27T12:13:11.334Z,95822.53
2022-11-27T12:16:00.802Z,95821.38
2022-11-27T12:18:42.532Z,95820.47
2022-11-27T12:21:20.160Z,95816.38
2022-11-27T12:23:54.059Z,95817.28
2022-11-27T12:26:46.340Z,95814.84
2022-11-27T12:29:18.767Z,95814.00
2022-11-27T12:32:16.844Z,95808.06
2022-11-27T12:35:02.282Z,95815.53
2022-11-27T12:37:41.519Z,95810.50
2022-11-27T12:40:24.544Z,95814.13
2022-11-27T12:43:24.982Z,95801.94
2022-11-27T12:46:00.356Z,95801.72
2022-11-27T12:48:52.015Z,95805.94
2022-11-27T12:51:27.974Z,95799.63
2022-11-27T12:54:05.486Z,95805.44
2022-11-27T12:56:44.873Z,95792.13
2022-11-27T12:59:14.999Z,95797.03
2022-11-27T13:01:47.733Z,95797.03
2022-11-27T13:04:30.354Z,95802.19
2022-11-27T13:07:18.963Z,95801.13
2022-11-27T13:10:24.370Z,95800.91
2022-11-27T13:13:04.572Z,95786.78
2022-11-27T13:16:11.371Z,95796.78
2022-11-27T13:18:46.463Z,95790.97
2022-11-27T13:21:20.914Z,95776.94
2022-11-27T13:23:48.547Z,95790.03
2022-11-27T13:26:32.996Z,95790.03
2022-11-27T13:29:29.555Z,95784.88
2022-11-27T13:32:00.492Z,95773.81
2022-11-27T13:34:29.939Z,95784.31
2022-11-27T13:37:08.772Z,95778.16
2022-11-27T13:39:42.132Z,95775.78
2022-11-27T13:42:11.987Z,95777.53
2022-11-27T13:44:44.721Z,95766.47
2022-11-27T13:47:16.607Z,95776.72
2022-11-27T13:49:44.026Z,95778.16
2022-11-27T13:52:15.995Z,95783.03
2022-11-27T13:55:00.494Z,95776.25
2022-11-27T13:57:30.420Z,95779.75
2022-11-27T14:00:10.702Z,95773.69
2022-11-27T14:02:52.112Z,95782.09
2022-11-27T14:05:22.356Z,95789.09
2022-11-27T14:07:52.864Z,95788.41
2022-11-27T14:10:33.906Z,95783.50
2022-11-27T14:13:10.158Z,95780.00
2022-11-27T14:15:38.508Z,95782.56
2022-11-27T14:18:18.126Z,95782.56
2022-11-27T14:20:53.880Z,95788.53
2022-11-27T14:23:51.605Z,95785.13
2022-11-27T14:26:24.267Z,95787.00
2022-11-27T14:28:58.431Z,95783.72
2022-11-27T14:31:33.650Z,95788.84
2022-11-27T14:34:23.229Z,95782.06
2022-11-27T14:36:53.058Z,95777.88
2022-11-27T14:39:31.535Z,95773.66
2022-11-27T14:42:00.603Z,95781.59
2022-11-27T14:44:28.325Z,95790.91
2022-11-27T14:46:57.417Z,95784.16
2022-11-27T14:49:27.337Z,95775.72
2022-11-27T14:51:56.987Z,95781.78
2022-11-27T14:54:35.634Z,95778.53
2022-11-27T14:57:02.771Z,95774.34
2022-11-27T14:59:29.615Z,95775.94
2022-11-27T15:02:17.036Z,95774.34
2022-11-27T15:04:47.399Z,95776.09
2022-11-27T15:07:22.087Z,95762.25
2022-11-27T15:09:51.798Z,95774.56
2022-11-27T15:12:23.724Z,95775.47
2022-11-27T15:15:00.136Z,95764.72
2022-11-27T15:17:30.646Z,95771.50
2022-11-27T15:19:58.296Z,95775.00
